createdAt,value
2022-09-12T00:00:43.435Z,13.73
2022-09-12T00:04:02.787Z,18.55
2022-09-12T00:07:01.537Z,10.23
2022-09-12T00:10:00.305Z,12.13
2022-09-12T00:12:58.889Z,13.90
2022-09-12T00:15:58.005Z,13.88
2022-09-12T00:18:56.771Z,10.82
2022-09-12T00:21:56.347Z,11.90
2022-09-12T00:24:55.069Z,15.43
2022-09-12T00:27:54.035Z,10.75
2022-09-12T00:30:52.502Z,13.50
2022-09-12T00:33:52.084Z,13.57
2022-09-12T00:36:50.696Z,12.10
2022-09-12T00:39:49.417Z,10.38
2022-09-12T00:42:47.935Z,12.02
2022-09-12T00:45:47.055Z,13.52
2022-09-12T00:48:52.954Z,12.13
2022-09-12T00:52:00.486Z,10.68
2022-09-12T00:55:06.793Z,10.50
2022-09-12T00:58:13.312Z,10.32
2022-09-12T01:01:11.766Z,9.60
2022-09-12T01:04:12.220Z,19.77
2022-09-12T01:07:11.627Z,10.50
2022-09-12T01:10:12.150Z,22.00
2022-09-12T01:13:11.664Z,27.27
2022-09-12T01:16:10.697Z,27.45
2022-09-12T01:19:44.359Z,24.58
2022-09-12T01:23:09.698Z,39.03
2022-09-12T01:26:41.887Z,38.10
2022-09-12T01:30:05.765Z,36.25
2022-09-12T01:33:21.873Z,37.22
2022-09-12T01:36:39.856Z,29.58
2022-09-12T01:39:59.712Z,33.20
2022-09-12T01:43:18.819Z,34.05
2022-09-12T01:46:32.624Z,38.30
2022-09-12T01:49:44.318Z,32.47
2022-09-12T01:52:51.824Z,43.55
2022-09-12T01:55:57.077Z,34.35
2022-09-12T01:59:04.535Z,33.63
2022-09-12T02:02:10.591Z,38.90
2022-09-12T02:05:17.138Z,32.20
2022-09-12T02:08:21.135Z,47.70
2022-09-12T02:11:20.957Z,45.53
2022-09-12T02:14:27.335Z,36.05
2022-09-12T02:17:27.106Z,43.78
2022-09-12T02:20:48.554Z,42.97
2022-09-12T02:23:51.894Z,43.58
2022-09-12T02:26:56.616Z,40.35
2022-09-12T02:29:55.363Z,94.60
2022-09-12T02:33:24.790Z,78.35
2022-09-12T02:36:41.047Z,108.28
2022-09-12T02:39:44.997Z,70.50
2022-09-12T02:42:44.134Z,79.15
2022-09-12T02:45:43.234Z,83.10
2022-09-12T02:48:44.459Z,68.15
2022-09-12T02:51:48.281Z,77.22
2022-09-12T02:54:47.302Z,59.78
2022-09-12T02:57:46.042Z,77.18
2022-09-12T03:01:01.191Z,92.80
2022-09-12T03:04:27.836Z,70.35
2022-09-12T03:07:54.960Z,81.13
2022-09-12T03:11:19.211Z,68.10
2022-09-12T03:14:38.422Z,62.95
2022-09-12T03:18:07.830Z,77.55
2022-09-12T03:21:24.812Z,84.43
2022-09-12T03:24:38.458Z,57.55
2022-09-12T03:27:41.811Z,49.97
2022-09-12T03:30:42.938Z,71.57
2022-09-12T03:33:41.418Z,65.38
2022-09-12T03:36:41.629Z,80.32
2022-09-12T03:39:40.219Z,67.07
2022-09-12T03:42:39.993Z,63.75
2022-09-12T03:45:39.622Z,57.22
2022-09-12T03:48:38.615Z,63.65
2022-09-12T03:51:37.340Z,46.30
2022-09-12T03:54:36.223Z,57.78
2022-09-12T03:57:34.852Z,52.80
2022-09-12T04:00:33.792Z,42.15
2022-09-12T04:03:32.173Z,45.78
2022-09-12T04:06:31.920Z,48.17
2022-09-12T04:09:30.497Z,36.50
2022-09-12T04:12:30.616Z,55.70
2022-09-12T04:15:29.033Z,44.22
2022-09-12T04:18:28.671Z,43.58
2022-09-12T04:21:28.209Z,38.17
2022-09-12T04:24:27.174Z,39.63
2022-09-12T04:27:25.593Z,46.88
2022-09-12T04:30:24.375Z,43.35
2022-09-12T04:33:23.338Z,38.05
2022-09-12T04:36:23.330Z,31.48
2022-09-12T04:39:21.770Z,41.72
2022-09-12T04:42:20.862Z,32.30
2022-09-12T04:45:19.903Z,47.63
2022-09-12T04:48:18.859Z,41.17
2022-09-12T04:51:21.885Z,39.20
2022-09-12T04:54:21.467Z,56.10
2022-09-12T04:57:20.071Z,33.92
2022-09-12T05:00:18.955Z,32.85
2022-09-12T05:03:17.472Z,47.15
2022-09-12T05:06:26.644Z,53.03
2022-09-12T05:09:25.135Z,43.13
2022-09-12T05:12:23.887Z,34.33
2022-09-12T05:15:22.414Z,35.67
2022-09-12T05:18:21.795Z,36.00
2022-09-12T05:21:23.815Z,38.42
2022-09-12T05:24:22.989Z,42.78
2022-09-12T05:27:21.340Z,39.63
2022-09-12T05:30:20.144Z,43.22
2022-09-12T05:33:22.011Z,38.50
2022-09-12T05:36:25.927Z,41.85
2022-09-12T05:39:25.248Z,41.45
2022-09-12T05:42:24.044Z,38.05
2022-09-12T05:45:22.555Z,36.83
2022-09-12T05:48:24.765Z,32.95
2022-09-12T05:51:27.117Z,37.90
2022-09-12T05:54:30.853Z,37.78
2022-09-12T05:57:30.397Z,48.28
2022-09-12T06:00:33.281Z,44.97
2022-09-12T06:03:32.039Z,33.72
2022-09-12T06:06:32.582Z,39.83
2022-09-12T06:09:30.952Z,39.15
2022-09-12T06:12:30.740Z,39.83
2022-09-12T06:15:29.126Z,34.97
2022-09-12T06:18:27.885Z,40.30
2022-09-12T06:21:27.396Z,34.38
2022-09-12T06:24:26.242Z,41.25
2022-09-12T06:27:24.759Z,32.35
2022-09-12T06:30:25.504Z,39.10
2022-09-12T06:33:24.022Z,42.28
2022-09-12T06:36:27.576Z,36.33
2022-09-12T06:39:28.735Z,41.85
2022-09-12T06:42:27.707Z,36.28
2022-09-12T06:45:26.783Z,34.70
2022-09-12T06:48:25.673Z,27.60
2022-09-12T06:51:25.146Z,41.03
2022-09-12T06:54:23.971Z,40.30
2022-09-12T06:57:22.667Z,36.88
2022-09-12T07:00:21.525Z,44.20
2022-09-12T07:03:20.242Z,38.15
2022-09-12T07:06:21.402Z,41.22
2022-09-12T07:09:19.777Z,31.60
2022-09-12T07:12:18.567Z,46.35
2022-09-12T07:15:17.597Z,39.63
2022-09-12T07:18:16.375Z,38.50
2022-09-12T07:21:16.222Z,43.38
2022-09-12T07:24:14.954Z,51.42
2022-09-12T07:27:13.717Z,46.92
2022-09-12T07:30:12.873Z,49.30
2022-09-12T07:33:11.280Z,44.92
2022-09-12T07:36:13.935Z,41.55
2022-09-12T07:39:12.894Z,45.75
2022-09-12T07:42:13.128Z,42.95
2022-09-12T07:45:11.857Z,38.83
2022-09-12T07:48:10.992Z,49.22
2022-09-12T07:51:11.447Z,31.73
2022-09-12T07:54:10.703Z,41.58
2022-09-12T07:57:09.298Z,49.40
2022-09-12T08:00:09.049Z,38.90
2022-09-12T08:03:07.999Z,41.40
2022-09-12T08:06:10.776Z,47.38
2022-09-12T08:09:09.444Z,47.17
2022-09-12T08:12:08.436Z,38.40
2022-09-12T08:15:07.339Z,34.80
2022-09-12T08:18:06.214Z,37.17
2022-09-12T08:21:07.253Z,53.67
2022-09-12T08:24:07.467Z,44.97
2022-09-12T08:27:08.392Z,52.20
2022-09-12T08:30:07.561Z,40.83
2022-09-12T08:33:08.480Z,45.80
2022-09-12T08:36:11.986Z,46.55
2022-09-12T08:39:14.975Z,45.00
2022-09-12T08:42:27.219Z,47.38
2022-09-12T08:45:37.459Z,47.47
2022-09-12T08:48:36.955Z,45.67
2022-09-12T08:51:36.637Z,50.03
2022-09-12T08:54:35.637Z,46.80
2022-09-12T08:57:34.527Z,40.15
2022-09-12T09:00:43.632Z,41.33
2022-09-12T09:04:05.814Z,47.67
2022-09-12T09:07:35.382Z,51.53
2022-09-12T09:10:57.886Z,46.45
2022-09-12T09:14:44.173Z,43.72
2022-09-12T09:17:45.860Z,46.45
2022-09-12T09:21:03.950Z,45.05
2022-09-12T09:24:09.010Z,55.17
2022-09-12T09:27:39.268Z,40.25
2022-09-12T09:30:37.190Z,35.53
2022-09-12T09:33:36.244Z,40.17
2022-09-12T09:36:58.808Z,43.83
2022-09-12T09:40:09.668Z,34.30
2022-09-12T09:43:20.896Z,33.35
2022-09-12T09:46:19.857Z,44.75
2022-09-12T09:49:19.030Z,41.40
2022-09-12T09:52:25.378Z,53.45
2022-09-12T09:55:29.162Z,59.00
2022-09-12T09:58:31.640Z,49.97
2022-09-12T10:01:30.328Z,54.13
2022-09-12T10:04:32.835Z,53.40
2022-09-12T10:07:31.470Z,45.05
2022-09-12T10:10:30.247Z,59.67
2022-09-12T10:13:35.496Z,51.83
2022-09-12T10:16:48.744Z,44.80
2022-09-12T10:19:52.702Z,57.60
2022-09-12T10:23:24.470Z,59.13
2022-09-12T10:26:23.159Z,51.25
2022-09-12T10:29:30.494Z,50.85
2022-09-12T10:32:38.221Z,32.63
2022-09-12T10:35:54.340Z,52.00
2022-09-12T10:39:03.444Z,52.05
2022-09-12T10:42:04.778Z,37.45
2022-09-12T10:45:03.631Z,44.35
2022-09-12T10:48:21.342Z,53.20
2022-09-12T10:51:29.399Z,45.50
2022-09-12T10:54:29.113Z,45.78
2022-09-12T10:57:36.498Z,38.15
2022-09-12T11:00:41.478Z,48.95
2022-09-12T11:04:00.516Z,58.60
2022-09-12T11:07:27.484Z,38.15
2022-09-12T11:10:52.357Z,47.85
2022-09-12T11:14:09.275Z,38.08
2022-09-12T11:17:28.780Z,56.53
2022-09-12T11:20:55.505Z,56.00
2022-09-12T11:24:17.021Z,33.13
2022-09-12T11:27:33.870Z,45.50
2022-09-12T11:30:47.711Z,47.35
2022-09-12T11:33:50.424Z,38.70
2022-09-12T11:37:10.438Z,42.70
2022-09-12T11:40:38.606Z,53.97
2022-09-12T11:43:56.329Z,36.88
2022-09-12T11:46:55.217Z,46.97
2022-09-12T11:49:55.510Z,37.28
2022-09-12T11:53:01.122Z,37.75
2022-09-12T11:56:09.982Z,27.45
2022-09-12T11:59:33.514Z,45.72
2022-09-12T12:02:53.222Z,33.38
2022-09-12T12:06:00.482Z,42.63
2022-09-12T12:08:59.287Z,27.03
2022-09-12T12:12:01.662Z,36.20
2022-09-12T12:15:01.660Z,35.38
2022-09-12T12:18:03.097Z,34.50
2022-09-12T12:21:21.996Z,45.80
2022-09-12T12:24:26.341Z,36.85
2022-09-12T12:27:48.262Z,45.15
2022-09-12T12:31:03.049Z,30.27
2022-09-12T12:34:04.648Z,35.03
2022-09-12T12:37:39.217Z,57.08
2022-09-12T12:40:39.718Z,36.63
2022-09-12T12:43:38.787Z,54.15
2022-09-12T12:46:39.867Z,57.70
2022-09-12T12:49:38.952Z,42.03
2022-09-12T12:53:07.903Z,55.45
2022-09-12T12:56:41.765Z,43.38
2022-09-12T12:59:49.736Z,50.20
2022-09-12T13:03:24.799Z,39.53
2022-09-12T13:06:36.918Z,33.00
2022-09-12T13:09:52.739Z,46.55
2022-09-12T13:12:53.334Z,46.28
2022-09-12T13:15:53.078Z,39.83
2022-09-12T13:18:52.510Z,55.60
2022-09-12T13:22:02.141Z,42.38
2022-09-12T13:25:00.818Z,42.20
2022-09-12T13:28:18.966Z,65.70
2022-09-12T13:31:24.825Z,41.92
2022-09-12T13:34:29.893Z,41.22
2022-09-12T13:37:50.839Z,45.88
2022-09-12T13:41:17.419Z,49.90
2022-09-12T13:44:20.529Z,42.17
2022-09-12T13:47:33.100Z,48.10
2022-09-12T13:50:40.490Z,39.65
2022-09-12T13:53:47.958Z,55.42
2022-09-12T13:56:50.512Z,41.58
2022-09-12T13:59:49.907Z,51.78
2022-09-12T14:02:50.639Z,52.38
2022-09-12T14:05:57.892Z,45.80
2022-09-12T14:08:58.076Z,29.73
2022-09-12T14:11:58.363Z,51.90
2022-09-12T14:14:57.652Z,46.95
2022-09-12T14:18:01.886Z,45.35
2022-09-12T14:21:10.969Z,44.95
2022-09-12T14:24:13.506Z,53.53
2022-09-12T14:27:12.357Z,51.03
2022-09-12T14:30:31.010Z,54.65
2022-09-12T14:33:32.348Z,59.00
2022-09-12T14:36:35.306Z,57.13
2022-09-12T14:39:41.121Z,51.15
2022-09-12T14:42:43.547Z,43.38
2022-09-12T14:45:42.536Z,55.33
2022-09-12T14:48:50.739Z,49.58
2022-09-12T14:52:06.601Z,42.17
2022-09-12T14:55:30.169Z,40.88
2022-09-12T14:58:30.716Z,55.53
2022-09-12T15:01:32.154Z,50.88
2022-09-12T15:04:50.505Z,60.35
2022-09-12T15:07:56.021Z,39.15
2022-09-12T15:10:54.802Z,31.83
2022-09-12T15:13:53.918Z,47.50
2022-09-12T15:16:52.455Z,40.13
2022-09-12T15:19:51.131Z,37.50
2022-09-12T15:22:49.719Z,44.97
2022-09-12T15:25:51.396Z,41.40
2022-09-12T15:28:53.079Z,42.47
2022-09-12T15:31:55.650Z,41.53
2022-09-12T15:34:55.476Z,44.40
2022-09-12T15:37:59.600Z,41.80
2022-09-12T15:40:59.524Z,34.08
2022-09-12T15:44:01.791Z,41.63
2022-09-12T15:47:00.457Z,36.17
2022-09-12T15:50:01.856Z,44.70
2022-09-12T15:53:00.582Z,30.75
2022-09-12T15:55:59.593Z,40.33
2022-09-12T15:58:59.819Z,49.47
2022-09-12T16:02:02.780Z,51.13
2022-09-12T16:05:01.540Z,35.95
2022-09-12T16:08:01.308Z,45.38
2022-09-12T16:11:04.340Z,45.15
2022-09-12T16:14:04.347Z,34.58
2022-09-12T16:17:03.408Z,38.28
2022-09-12T16:20:02.529Z,33.17
2022-09-12T16:23:02.584Z,32.80
2022-09-12T16:26:05.150Z,34.50
2022-09-12T16:29:04.335Z,49.00
2022-09-12T16:32:03.613Z,24.92
2022-09-12T16:35:02.598Z,31.65
2022-09-12T16:38:05.375Z,33.58
2022-09-12T16:41:06.699Z,39.47
2022-09-12T16:44:05.491Z,39.03
2022-09-12T16:47:04.173Z,35.85
2022-09-12T16:50:03.126Z,41.47
2022-09-12T16:53:02.027Z,34.63
2022-09-12T16:56:00.910Z,52.13
2022-09-12T16:58:59.439Z,50.05
2022-09-12T17:01:58.303Z,43.85
2022-09-12T17:04:56.962Z,31.55
2022-09-12T17:07:55.752Z,44.10
2022-09-12T17:10:54.357Z,38.72
2022-09-12T17:14:10.694Z,42.75
2022-09-12T17:17:12.630Z,35.17
2022-09-12T17:20:11.600Z,35.20
2022-09-12T17:23:10.594Z,36.55
2022-09-12T17:26:10.683Z,36.78
2022-09-12T17:29:09.115Z,36.50
2022-09-12T17:32:07.981Z,47.88
2022-09-12T17:35:07.861Z,41.15
2022-09-12T17:38:07.014Z,41.28
2022-09-12T17:41:08.993Z,39.45
2022-09-12T17:44:08.330Z,37.75
2022-09-12T17:47:07.390Z,32.63
2022-09-12T17:50:30.407Z,40.22
2022-09-12T17:53:26.481Z,38.72
2022-09-12T17:56:28.406Z,39.03
2022-09-12T17:59:26.947Z,33.83
2022-09-12T18:02:25.706Z,39.13
2022-09-12T18:05:24.157Z,42.20
2022-09-12T18:08:24.765Z,31.42
2022-09-12T18:11:23.491Z,33.88
2022-09-12T18:14:22.289Z,39.72
2022-09-12T18:17:20.708Z,38.78
2022-09-12T18:20:19.632Z,32.60
2022-09-12T18:23:19.777Z,42.97
2022-09-12T18:26:18.574Z,38.58
2022-09-12T18:29:17.608Z,32.92
2022-09-12T18:32:16.338Z,38.75
2022-09-12T18:35:14.960Z,36.50
2022-09-12T18:38:13.734Z,41.53
2022-09-12T18:41:15.680Z,35.60
2022-09-12T18:44:14.413Z,33.95
2022-09-12T18:47:12.953Z,30.38
2022-09-12T18:50:11.748Z,41.92
2022-09-12T18:53:10.509Z,40.83
2022-09-12T18:56:12.568Z,45.60
2022-09-12T18:59:13.522Z,51.08
2022-09-12T19:02:17.078Z,41.20
2022-09-12T19:05:15.514Z,43.90
2022-09-12T19:08:14.317Z,35.35
2022-09-12T19:11:13.103Z,31.30
2022-09-12T19:14:11.827Z,44.13
2022-09-12T19:17:10.703Z,39.78
2022-09-12T19:20:09.725Z,51.75
2022-09-12T19:23:08.162Z,27.42
2022-09-12T19:26:10.307Z,31.48
2022-09-12T19:29:08.994Z,34.38
2022-09-12T19:32:09.031Z,49.40
2022-09-12T19:35:08.018Z,38.40
2022-09-12T19:38:06.781Z,49.45
2022-09-12T19:41:07.383Z,28.35
2022-09-12T19:44:07.837Z,38.75
2022-09-12T19:47:06.310Z,48.58
2022-09-12T19:50:05.548Z,51.05
2022-09-12T19:53:04.616Z,40.10
2022-09-12T19:56:05.841Z,39.05
2022-09-12T19:59:04.463Z,29.35
2022-09-12T20:02:03.256Z,34.92
2022-09-12T20:05:02.044Z,40.25
2022-09-12T20:08:01.112Z,31.65
2022-09-12T20:10:59.477Z,46.25
2022-09-12T20:13:58.293Z,60.00
2022-09-12T20:16:56.719Z,45.13
2022-09-12T20:19:56.042Z,34.78
2022-09-12T20:22:54.873Z,36.90
2022-09-12T20:25:53.585Z,40.47
2022-09-12T20:28:52.198Z,36.20
2022-09-12T20:31:54.932Z,42.08
2022-09-12T20:34:56.681Z,37.60
2022-09-12T20:37:55.439Z,41.85
2022-09-12T20:40:53.955Z,37.28
2022-09-12T20:43:55.372Z,48.55
2022-09-12T20:46:54.019Z,38.97
2022-09-12T20:49:55.834Z,37.60
2022-09-12T20:52:54.280Z,45.28
2022-09-12T20:56:07.332Z,37.33
2022-09-12T20:59:06.271Z,36.30
2022-09-12T21:02:05.052Z,32.38
2022-09-12T21:05:03.340Z,54.17
2022-09-12T21:08:02.235Z,39.50
2022-09-12T21:11:01.144Z,35.42
2022-09-12T21:13:59.813Z,53.70
2022-09-12T21:16:58.245Z,49.63
2022-09-12T21:19:56.996Z,48.47
2022-09-12T21:22:55.316Z,30.13
2022-09-12T21:25:57.007Z,39.22
2022-09-12T21:28:55.407Z,34.75
2022-09-12T21:31:54.045Z,39.58
2022-09-12T21:34:52.427Z,33.15
2022-09-12T21:37:53.560Z,35.25
2022-09-12T21:40:51.803Z,36.58
2022-09-12T21:43:50.651Z,35.58
2022-09-12T21:46:48.975Z,37.35
2022-09-12T21:49:47.673Z,41.40
2022-09-12T21:52:49.328Z,40.47
2022-09-12T21:55:48.031Z,35.78
2022-09-12T21:58:55.253Z,52.42
2022-09-12T22:01:55.220Z,31.17
2022-09-12T22:04:53.495Z,33.20
2022-09-12T22:07:52.937Z,38.92
2022-09-12T22:10:51.229Z,46.15
2022-09-12T22:13:49.935Z,46.90
2022-09-12T22:16:48.627Z,42.45
2022-09-12T22:19:47.436Z,35.17
2022-09-12T22:23:01.517Z,39.22
2022-09-12T22:26:02.739Z,47.90
2022-09-12T22:29:01.665Z,40.67
2022-09-12T22:32:01.277Z,51.35
2022-09-12T22:34:59.969Z,47.33
2022-09-12T22:37:58.519Z,38.40
2022-09-12T22:40:57.378Z,37.20
2022-09-12T22:43:56.804Z,39.67
2022-09-12T22:46:55.116Z,40.13
2022-09-12T22:49:54.080Z,35.00
2022-09-12T22:52:53.715Z,34.60
2022-09-12T22:55:52.344Z,44.60
2022-09-12T22:58:51.330Z,35.17
2022-09-12T23:01:50.003Z,34.08
2022-09-12T23:04:54.661Z,33.35
2022-09-12T23:07:53.301Z,42.08
2022-09-12T23:10:51.630Z,35.40
2022-09-12T23:13:51.836Z,31.33
2022-09-12T23:16:50.425Z,51.17
2022-09-12T23:19:49.176Z,33.70
2022-09-12T23:22:56.874Z,31.63
2022-09-12T23:26:04.706Z,34.72
2022-09-12T23:29:04.949Z,31.30
2022-09-12T23:32:04.653Z,33.92
2022-09-12T23:35:04.090Z,27.88
2022-09-12T23:38:02.893Z,33.22
2022-09-12T23:41:03.318Z,27.67
2022-09-12T23:44:02.191Z,37.33
2022-09-12T23:47:00.592Z,36.95
2022-09-12T23:49:59.352Z,38.97
2022-09-12T23:52:57.789Z,32.22
2022-09-12T23:55:56.640Z,29.15
2022-09-12T23:58:55.030Z,37.35
